Home > Products > Valid Products > MTR

000
SAUS43 KAPX 010555
MTRAPN
METAR KAPN 010554Z AUTO 00000KT 10SM BKN075 OVC095 16/14 A3001 RMK
AO2 SLP161 T01560139 10222 20139 51004





000
SAUS43 KAPX 010455
MTRAPN
METAR KAPN 010454Z AUTO 00000KT 10SM BKN100 14/13 A3001 RMK AO2
SLP162 T01440133 402500122





000
SAUS43 KAPX 010355
MTRAPN
METAR KAPN 010354Z AUTO 00000KT 10SM SCT070 15/13 A3001 RMK AO2
SLP161 T01500133





000
SAUS43 KAPX 010255
MTRAPN
METAR KAPN 010254Z AUTO 00000KT 10SM SCT095 17/13 A3000 RMK AO2
SLP158 T01720133 51011





000
SAUS43 KAPX 010155
MTRAPN
METAR KAPN 010154Z AUTO 06003KT 10SM BKN080 BKN095 18/13 A2999 RMK
AO2 SLP154 T01780133





000
SAUS43 KAPX 010055
MTRAPN
METAR KAPN 010054Z AUTO 03005KT 10SM BKN085 OVC100 19/13 A2998 RMK
AO2 SLP151 T01940128





000
SAUS43 KAPX 312355
MTRAPN
METAR KAPN 312354Z AUTO 35007KT 10SM OVC100 22/11 A2997 RMK AO2
SLP146 T02220106 10250 20222 53004





000
SAUS43 KAPX 312255
MTRAPN
METAR KAPN 312254Z AUTO 29007KT 10SM FEW075 24/10 A2995 RMK AO2
SLP142 T02440100





000
SAUS43 KAPX 312155
MTRAPN
METAR KAPN 312154Z AUTO 00000KT 10SM BKN100 24/12 A2995 RMK AO2
SLP142 T02440117





000
SAUS43 KAPX 312055
MTRAPN
METAR KAPN 312054Z AUTO 30003KT 10SM FEW065 BKN080 OVC095 23/11
A2995 RMK AO2 SLP142 T02280106 53002





000
SAUS43 KAPX 311955
MTRAPN
METAR KAPN 311954Z AUTO VRB05KT 10SM FEW065 OVC095 23/11 A2994 RMK
AO2 SLP139 T02330106





000
SAUS43 KAPX 311855
MTRAPN
METAR KAPN 311854Z AUTO 27008KT 10SM SCT055 SCT070 SCT085 23/10
A2994 RMK AO2 SLP137 T02330100





000
SAUS43 KAPX 311756
MTRAPN
METAR KAPN 311754Z AUTO 30008KT 260V330 10SM FEW050 24/11 A2995 RMK
AO2 SLP140 T02390111 10239 20133 58004





000
SAUS43 KAPX 311655
MTRAPN
METAR KAPN 311654Z AUTO 25007KT 10SM CLR 22/11 A2995 RMK AO2 SLP142
T02220106





000
SAUS43 KAPX 311555
MTRAPN
METAR KAPN 311554Z AUTO 28005KT 10SM CLR 21/12 A2996 RMK AO2 SLP144
T02110117





000
SAUS43 KAPX 311455
MTRAPN
METAR KAPN 311454Z AUTO 23007KT 10SM CLR 19/12 A2996 RMK AO2 SLP144
T01890122 55001





000
SAUS43 KAPX 310955
MTRAPN
METAR KAPN 310954Z AUTO 00000KT 10SM BKN055 13/12 A2996 RMK AO2
RAE0857 SLP146 P0000 T01280117





000
SAUS43 KAPX 310856
MTRAPN
METAR KAPN 310854Z AUTO 00000KT 10SM -RA OVC060 13/12 A2996 RMK AO2
RAB33 SLP145 P0000 60000 T01330122 56007





000
SAUS43 KAPX 310755
MTRAPN
METAR KAPN 310754Z AUTO 23003KT 10SM SCT060 BKN070 OVC095 13/12
A2996 RMK AO2 SLP146 T01280117





000
SAUS43 KAPX 310655
MTRAPN
METAR KAPN 310654Z AUTO 23003KT 10SM OVC095 13/12 A2997 RMK AO2
SLP147 T01330122





000
SAUS43 KAPX 310555
MTRAPN
METAR KAPN 310554Z AUTO 00000KT 10SM SCT080 BKN100 13/12 A2998 RMK
AO2 SLP152 60002 T01280122 10167 20122 58001





000
SAUS43 KAPX 310455
MTRAPN
METAR KAPN 310454Z AUTO 00000KT 10SM OVC070 13/13 A2998 RMK AO2
SLP153 T01330128 402280100





000
SAUS43 KAPX 310355
MTRAPN
METAR KAPN 310354Z AUTO 00000KT 4SM BR BKN075 BKN100 13/12 A2998 RMK
AO2 SLP152 T01280122





000
SAUS43 KAPX 310355
MTRAPN
METAR KAPN 310354Z AUTO 00000KT 4SM BR BKN075 BKN100 13/12 A2998 RMK
AO2 SLP152 T01280122





000
SAUS43 KAPX 310255
MTRAPN
METAR KAPN 310254Z AUTO 00000KT 10SM SCT075 BKN100 14/13 A2998 RMK
AO2 RAB29E49 SLP154 P0002 60002 T01390128 50002





000
SAUS43 KAPX 310155
MTRAPN
METAR KAPN 310154Z AUTO 19003KT 10SM BKN100 14/13 A2998 RMK AO2
SLP155 T01440128





000
SAUS43 KAPX 310055
MTRAPN
METAR KAPN 310054Z AUTO 00000KT 10SM FEW048 FEW060 BKN120 16/12
A2998 RMK AO2 SLP155 T01610122





000
SAUS43 KAPX 302355
MTRAPN
METAR KAPN 302354Z AUTO 00000KT 10SM FEW050 17/12 A2998 RMK AO2
SLP152 T01670117 10228 20167 50005





000
SAUS43 KAPX 302255
MTRAPN
METAR KAPN 302254Z AUTO 00000KT 10SM FEW050 SCT070 BKN090 17/12
A2998 RMK AO2 SLP152 T01720117





000
SAUS43 KAPX 302155
MTRAPN
METAR KAPN 302154Z AUTO 13005KT 10SM BKN055 BKN070 OVC085 17/12
A2997 RMK AO2 SLP152 T01670122





000
SAUS43 KAPX 302055
MTRAPN
METAR KAPN 302054Z AUTO 14008KT 10SM BKN046 BKN065 18/13 A2996 RMK
AO2 SLP147 T01830128 56006





000
SAUS43 KAPX 301955
MTRAPN
METAR KAPN 301954Z AUTO 34006KT 10SM FEW042 22/11 A2996 RMK AO2
SLP146 T02220111





000
SAUS43 KAPX 301855
MTRAPN
METAR KAPN 301854Z AUTO 35008KT 10SM FEW045 SCT065 21/11 A2997 RMK
AO2 SLP150 T02060111





000
SAUS43 KAPX 301755
MTRAPN
METAR KAPN 301754Z AUTO VRB04KT 10SM SCT060 19/10 A2998 RMK AO2
SLP152 T01940100 10211 20117 58007





000
SAUS43 KAPX 301655
MTRAPN
METAR KAPN 301654Z AUTO 35010KT 10SM CLR 20/12 A2999 RMK AO2 SLP157
T02000117





000
SAUS43 KAPX 301555
MTRAPN
METAR KAPN 301554Z AUTO 36010KT 10SM FEW025 19/12 A3001 RMK AO2
SLP161 T01890122





000
SAUS43 KAPX 301516
MTRAPN
SPECI KAPN 301514Z AUTO 36007KT 10SM FEW014 17/12 A3000 RMK AO2
T01720122





000
SAUS43 KAPX 301451
MTRAPN
METAR KAPN 301450Z AUTO 32006KT 10SM BKN014 17/13 A3000 RMK AO2
SLP160 T01720128 51006





000
SAUS43 KAPX 301444
MTRAPN
SPECI KAPN 301443Z AUTO 36005KT 10SM SCT012 16/12 A3000 RMK AO2
T01610122





000
SAUS43 KAPX 301424
MTRAPN
SPECI KAPN 301423Z AUTO 33006KT 10SM BKN010 15/12 A3000 RMK AO2 CIG
008V012 T01500122





000
SAUS43 KAPX 301355
MTRAPN
METAR KAPN 301354Z AUTO 01007KT 10SM BKN008 15/13 A3000 RMK AO2
SLP161 T01500128





000
SAUS43 KAPX 301318
MTRAPN
SPECI KAPN 301317Z AUTO 31005KT 10SM BKN007 14/12 A3000 RMK AO2
T01390122





000
SAUS43 KAPX 301303
MTRAPN
SPECI KAPN 301302Z AUTO 34006KT 10SM SCT007 14/12 A2999 RMK AO2
T01440122





000
SAUS43 KAPX 301255
MTRAPN
METAR KAPN 301254Z AUTO 33004KT 10SM CLR 14/12 A2999 RMK AO2 SLP157
T01390117





000
SAUS43 KAPX 301155
MTRAPN
METAR KAPN 301154Z AUTO 30004KT 10SM CLR 12/11 A2998 RMK AO2 SLP154
70022 T01170106 10117 20100 53010





000
SAUS43 KAPX 301055
MTRAPN
METAR KAPN 301054Z AUTO 29004KT 10SM CLR 10/09 A2997 RMK AO2 SLP149
T01000094





000
SAUS43 KAPX 300955
MTRAPN
METAR KAPN 300954Z AUTO 27004KT 10SM CLR 10/09 A2996 RMK AO2 SLP146
T01000094





000
SAUS43 KAPX 300855
MTRAPN
METAR KAPN 300854Z AUTO 27004KT 10SM CLR 11/10 A2995 RMK AO2 SLP143
T01060100 53001





000
SAUS43 KAPX 300755
MTRAPN
METAR KAPN 300754Z AUTO 28003KT 10SM CLR 11/10 A2994 RMK AO2 SLP140
T01060100





000
SAUS43 KAPX 300655
MTRAPN
METAR KAPN 300654Z AUTO 00000KT 10SM CLR 11/10 A2994 RMK AO2 SLP139
T01110100





000
SAUS43 KAPX 300555
MTRAPN
METAR KAPN 300554Z AUTO 00000KT 10SM CLR 12/11 A2995 RMK AO2 SLP142
60018 T01170106 10178 20106 53001





000
SAUS43 KAPX 300455
MTRAPN
METAR KAPN 300454Z AUTO 00000KT 10SM CLR 12/11 A2994 RMK AO2 SLP140
T01220111 402280111





000
SAUS43 KAPX 300355
MTRAPN
METAR KAPN 300354Z AUTO 00000KT 10SM CLR 13/12 A2994 RMK AO2 SLP140
T01330117





000
SAUS43 KAPX 300255
MTRAPN
METAR KAPN 300254Z AUTO 24003KT 10SM FEW042 FEW050 BKN070 14/13
A2995 RMK AO2 SLP141 60018 T01390133 51009





000
SAUS43 KAPX 300155
MTRAPN
METAR KAPN 300154Z AUTO 00000KT 10SM CLR 13/12 A2994 RMK AO2 RAE0057
SLP140 P0000 T01330122





000
SAUS43 KAPX 300055
MTRAPN
METAR KAPN 300054Z AUTO 25005KT 8SM -RA FEW035 BKN050 OVC060 14/12
A2993 RMK AO2 RAB34 TSB11B21E52 SLP137 P0018 T01440117





000
SAUS43 KAPX 300051
MTRAPN
SPECI KAPN 300049Z AUTO 07003KT 3SM -TSRA SCT037 OVC050 14/11 A2993
RMK AO2 VIS 2 RY 19 RAB34 TSB11B21 P0018





000
SAUS43 KAPX 300042
MTRAPN
SPECI KAPN 300041Z AUTO 05008KT 1 3/4SM +TSRA SCT029 BKN039 OVC065
14/11 A2994 RMK AO2 RAB34 TSB11B21 P0012 T01390106





000
SAUS43 KAPX 300013
MTRAPN
SPECI KAPN 300011Z AUTO 09004KT 10SM TS FEW049 BKN065 OVC080 18/14
A2992 RMK AO2 TSB11 T01780139





000
SAUS43 KAPX 292355
MTRAPN
METAR KAPN 292354Z AUTO 08006KT 10SM SCT049 BKN075 18/14 A2992 RMK
AO2 SLP132 60004 T01830139 10228 20172 53008





000
SAUS43 KAPX 292255
MTRAPN
METAR KAPN 292254Z AUTO 35007KT 10SM BKN045 22/11 A2991 RMK AO2
SLP126 T02220111





000
SAUS43 KAPX 292155
MTRAPN
METAR KAPN 292154Z AUTO 28008KT 10SM CLR 22/10 A2990 RMK AO2 SLP125
T02170100





000
SAUS43 KAPX 292055
MTRAPN
METAR KAPN 292054Z AUTO 31007KT 10SM BKN040 BKN050 BKN060 22/12
A2990 RMK AO2 SLP123 60004 T02220122 58001





000
SAUS43 KAPX 291955
MTRAPN
METAR KAPN 291954Z AUTO 34007KT 10SM FEW043 BKN080 22/13 A2989 RMK
AO2 RAB22E36 SLP122 P0000 T02170133





000
SAUS43 KAPX 291855
MTRAPN
METAR KAPN 291854Z AUTO 33006KT 10SM FEW032 SCT055 BKN070 20/15
A2990 RMK AO2 RAB30E49 SLP126 P0004 T02000150





000
SAUS43 KAPX 291755
MTRAPN
METAR KAPN 291754Z AUTO VRB06KT 10SM SCT036 SCT044 SCT060 21/12
A2990 RMK AO2 SLP124 T02110117 10222 20139 58007





000
SAUS43 KAPX 291628
MTRAPN
SPECI KAPN 291627Z AUTO VRB05KT 10SM SCT024 SCT033 BKN043 20/14
A2992 RMK AO2 T02000139





000
SAUS43 KAPX 291555
MTRAPN
METAR KAPN 291554Z AUTO VRB06KT 10SM BKN024 OVC029 18/13 A2992 RMK
AO2 SLP133 T01830128





000
SAUS43 KAPX 291455
MTRAPN
METAR KAPN 291454Z AUTO VRB04KT 10SM BKN018 OVC023 17/13 A2992 RMK
AO2 SLP132 T01720133 50001





000
SAUS43 KAPX 291441
MTRAPN
SPECI KAPN 291440Z AUTO 28009KT 10SM OVC016 17/13 A2992 RMK AO2
T01670133





000
SAUS43 KAPX 291356
MTRAPN
METAR KAPN 291354Z AUTO 30008KT 10SM OVC011 16/13 A2992 RMK AO2
SLP134 T01610133





000
SAUS43 KAPX 291330
MTRAPN
SPECI KAPN 291329Z AUTO VRB05KT 10SM BKN011 BKN080 OVC110 16/13
A2992 RMK AO2 T01560133





000
SAUS43 KAPX 291255
MTRAPN
METAR KAPN 291254Z AUTO 28006KT 10SM BKN050 BKN100 OVC110 14/13
A2992 RMK AO2 SLP133 T01440128





000
SAUS43 KAPX 291155
MTRAPN
METAR KAPN 291154Z AUTO 26005KT 10SM FEW013 BKN046 OVC120 14/12
A2992 RMK AO2 SLP130 60001 70001 T01390117 10139 20111 53000





000
SAUS43 KAPX 291055
MTRAPN
METAR KAPN 291054Z AUTO 23003KT 10SM OVC065 13/12 A2991 RMK AO2
RAB12E38 SLP128 P0001 T01280117





000
SAUS43 KAPX 290955
MTRAPN
METAR KAPN 290954Z AUTO 25003KT 10SM FEW036 BKN080 OVC120 13/11
A2991 RMK AO2 SLP130 T01330106





000
SAUS43 KAPX 290855
MTRAPN
METAR KAPN 290854Z AUTO 25005KT 10SM OVC080 13/11 A2991 RMK AO2
SLP130 T01280106 56010





000
SAUS43 KAPX 290755
MTRAPN
METAR KAPN 290754Z AUTO 26004KT 10SM OVC065 13/11 A2992 RMK AO2
SLP133 T01280106





000
SAUS43 KAPX 290655
MTRAPN
METAR KAPN 290654Z AUTO 28003KT 10SM OVC090 12/11 A2993 RMK AO2
SLP137 T01220106





    US Dept of Commerce
    National Oceanic and Atmospheric Administration
    National Weather Service
    1325 East West Highway
    Silver Spring, MD 20910
    Page Author: NWS Internet Services Team
Disclaimer
Information Quality
Credits
Glossary
Privacy Policy
Freedom of Information Act (FOIA)
About Us
Career Opportunities